Campbell, NE (68932)

2:53 AM CST on December 10, 2016 (GMT -0600)
New Virginia, Webster Co. | | Change Station

Elev 1965 ft 40.17 °N, 98.63 °W | Updated 1 second ago

Overcast
Overcast
19.4 °F
Feels Like 9 °F
N
8.3
Wind Variable Wind from SE
Gusts 9.8 mph

Today
High -- | Low -- °F
--% Chance of Precip.
Yesterday
High -- | Low -- °F
Precip. -- in
Pressure 30.45 in
Visibility 10.0 miles
Clouds Few 10000 ft
Windchill 9 °F
Dew Point -11 °F
Humidity 25%
Rainfall 0.00 in
Snow Depth Not available.
7:47 AM 5:08 PM
Waxing Gibbous, 82% visible
METAR KHSI 100753Z AUTO 13006KT 10SM FEW100 M08/M11 A3036 RMK AO2 SLP312 T10781106
Pressure 30.45 in
Visibility 10.0 miles
Clouds Few 10000 ft
Windchill 9 °F
Dew Point -11 °F
Humidity 25%
Rainfall 0.00 in
Snow Depth Not available.
7:47 AM 5:08 PM
Waxing Gibbous, 82% visible
METAR KHSI 100753Z AUTO 13006KT 10SM FEW100 M08/M11 A3036 RMK AO2 SLP312 T10781106

10-Day Weather Forecast

Almanac

Astronomy

Dec. 10, 2016 Rise Set
Actual Time
Civil Twilight
Nautical Twilight
Astronomical Twilight
Moon
Length of Visible Light
Length of Day
Tomorrow will be .
, % of the Moon is Illuminated

Today's Extremes

State Highs State Lows

Community

WunderPhotos

Upload Photos

1,956,538 photos uploaded!

WunderBlog® & News

Nearby

Air Quality

  Air Quality AQ Index Pollutant
Not available.

Snow Depth

Station Depth Elevation

Earthquake Activity

City Distance Mag. Time & Date
Minimum magnitude displayed is 2.5.

Coastal Water Temperatures

Place Temperature

Stations

Nearby Weather Stations

Station Location Temp. Windchill Dew Point Humidity Wind Precip. Elev Updated Type
                   

Watches & Warnings

There are currently no watches in effect.